Southern Ontario METAR Reports

CYSN - St.Catharines
Updated: 10/31/2020 12:00pm
Few Clouds
Few Clouds
 Wind from SSW
Wind: SSW 15 km/h
Temperature: 6°C
Wind Chill: 3°C
Dew Point: -3°C
Humidity: 53%
Barometer: 1031.2 hPa
Clouds: Few Clouds
Visibility: 24 km
Cloud details: Few Clouds 1219 m
Few Clouds 7620 m
2020/10/31 16:00 CYSN 311600Z 20008KT 140V220 15SM FEW040 FEW250 06/M03 A3045 RMK SC1CI1 SC TR CI TR SLP317
CYHM - Hamilton
Updated: 10/31/2020 12:00pm
Mostly cloudy
Mostly cloudy
 Wind from SE
Wind: SE 9 km/h
Temperature: 3°C
Wind Chill: 0°C
Dew Point: -3°C
Humidity: 65%
Barometer: 1030.5 hPa
Clouds: Mostly cloudy
Visibility: 24 km
Cloud details: Few Clouds 762 m
Mostly cloudy 1158 m
2020/10/31 16:00 CYHM 311600Z 14005KT 15SM FEW025 BKN038 03/M03 A3043 RMK CF1SC7 CF TR SLP317
 
CYYZ - Toronto
Updated: 10/31/2020 12:00pm
Partly cloudy
Partly cloudy
 Wind from S
Wind: S 6 km/h
Temperature: 4°C
Dew Point: -5°C
Humidity: 52%
Barometer: 1030.8 hPa
Clouds: Partly cloudy
Visibility: 24 km
Cloud details: Partly cloudy 1158 m
2020/10/31 16:00 CYYZ 311600Z 19003KT 100V270 15SM SCT038 04/M05 A3044 RMK SC3 SLP317
CYKF - Waterloo
Updated: 10/31/2020 12:00pm
Clear
Clear
 Wind from S
Wind: S 13 km/h
Temperature: 4°C
Wind Chill: 1°C
Dew Point: -4°C
Humidity: 56%
Barometer: 1029.5 hPa
Clouds: Clear
Visibility: 14 km
2020/10/31 16:00 CYKF 311600Z AUTO 19007KT 140V230 9SM CLR 04/M04 A3040 RMK SLP308
 
CYXU - London
Updated: 10/31/2020 12:00pm
Mostly cloudy
Mostly cloudy
 Wind from SE
Wind: SE 19 km/h
Temperature: 3°C
Wind Chill: -2°C
Dew Point: -3°C
Humidity: 65%
Barometer: 1029.5 hPa
Clouds: Mostly cloudy
Visibility: 24 km
Cloud details: Mostly cloudy 1280 m
2020/10/31 16:00 CYXU 311600Z 14010KT 15SM BKN042 03/M03 A3040 RMK SC7 SLP308
CYQG - Windsor
Updated: 10/31/2020 12:00pm
Partly cloudy
Partly cloudy
 Wind from SSW
Wind: SSW 22 km/h, Gust: 35 km/h
Temperature: 7°C
Wind Chill: 4°C
Dew Point: -2°C
Humidity: 53%
Barometer: 1029.1 hPa
Clouds: Partly cloudy
Visibility: 14 km
Cloud details: Partly cloudy 1097 m
2020/10/31 16:00 CYQG 311600Z AUTO 20012G19KT 9SM SCT036 07/M02 A3039 RMK SLP297
 
CYZR - Sarnia
Updated: 10/31/2020 12:00pm
Few Clouds
Few Clouds
 Wind from SSW
Wind: SSW 24 km/h, Gust: 33 km/h
Temperature: 6°C
Wind Chill: 2°C
Dew Point: -2°C
Humidity: 57%
Barometer: 1028.4 hPa
Clouds: Few Clouds
Visibility: 14 km
Cloud details: Few Clouds 1067 m
2020/10/31 16:00 CYZR 311600Z AUTO 20013G18KT 9SM FEW035 06/M02 A3037 RMK SLP293
CYVV - Wiarton
Updated: 10/31/2020 12:00pm
Overcast
Overcast
 Wind from S
Wind: S 24 km/h
Temperature: 4°C
Wind Chill: -1°C
Dew Point: -3°C
Humidity: 61%
Barometer: 1027.8 hPa
Clouds: Overcast
Visibility: 24 km
Cloud details: Overcast 914 m
2020/10/31 16:00 CYVV 311600Z 18013KT 15SM OVC030 04/M03 A3035 RMK SC8 SLP290
 
CYPQ - Peterborough
Updated: 10/31/2020 12:00pm
Clear
Clear
 Wind from SW
Wind: SW 7 km/h
Temperature: 4°C
Wind Chill: 2°C
Dew Point: -5°C
Humidity: 52%
Barometer: 1030.8 hPa
Clouds: Clear
Visibility: 14 km
2020/10/31 16:00 CYPQ 311600Z AUTO 22004KT 160V290 9SM CLR 04/M05 A3044 RMK SLP318
CYTR - Trenton
Updated: 10/31/2020 12:00pm
Few Clouds
Few Clouds
 Wind from SW
Wind: SW 6 km/h
Temperature: 4°C
Dew Point: -5°C
Humidity: 52%
Barometer: 1032.2 hPa
Clouds: Few Clouds
Visibility: 24 km
Cloud details: Few Clouds 1158 m
2020/10/31 16:00 CYTR 311600Z 23003KT 15SM FEW038 04/M05 A3048 RMK SC1 SLP325